sensor_id;sensor_type;location;lat;lon;timestamp;P1;durP1;ratioP1;P2;durP2;ratioP2
12871;SDS011;6504;53.766;9.626;2023-12-20T00:01:24;13.03;;;2.97;;
12871;SDS011;6504;53.766;9.626;2023-12-20T00:03:52;17.63;;;2.90;;
12871;SDS011;6504;53.766;9.626;2023-12-20T00:06:20;10.40;;;2.90;;
12871;SDS011;6504;53.766;9.626;2023-12-20T00:08:49;11.33;;;2.77;;
12871;SDS011;6504;53.766;9.626;2023-12-20T00:11:17;12.77;;;2.63;;
12871;SDS011;6504;53.766;9.626;2023-12-20T00:13:45;8.73;;;2.70;;
12871;SDS011;6504;53.766;9.626;2023-12-20T00:16:17;6.70;;;2.80;;
12871;SDS011;6504;53.766;9.626;2023-12-20T00:18:47;10.17;;;2.57;;
12871;SDS011;6504;53.766;9.626;2023-12-20T00:21:15;9.20;;;2.57;;
12871;SDS011;6504;53.766;9.626;2023-12-20T00:23:43;12.63;;;2.60;;
12871;SDS011;6504;53.766;9.626;2023-12-20T00:26:11;12.37;;;2.60;;
12871;SDS011;6504;53.766;9.626;2023-12-20T00:28:39;7.57;;;2.77;;
12871;SDS011;6504;53.766;9.626;2023-12-20T00:31:07;12.40;;;2.63;;
12871;SDS011;6504;53.766;9.626;2023-12-20T00:33:36;8.73;;;2.30;;
12871;SDS011;6504;53.766;9.626;2023-12-20T00:36:07;9.90;;;2.97;;
12871;SDS011;6504;53.766;9.626;2023-12-20T00:38:36;10.60;;;3.13;;
12871;SDS011;6504;53.766;9.626;2023-12-20T00:41:04;9.47;;;2.43;;
12871;SDS011;6504;53.766;9.626;2023-12-20T00:43:33;8.73;;;2.50;;
12871;SDS011;6504;53.766;9.626;2023-12-20T00:46:01;14.90;;;3.00;;
12871;SDS011;6504;53.766;9.626;2023-12-20T00:48:30;11.30;;;3.00;;
12871;SDS011;6504;53.766;9.626;2023-12-20T00:50:58;10.10;;;2.63;;
12871;SDS011;6504;53.766;9.626;2023-12-20T00:53:27;10.17;;;3.30;;
12871;SDS011;6504;53.766;9.626;2023-12-20T00:55:55;9.47;;;2.80;;
12871;SDS011;6504;53.766;9.626;2023-12-20T00:58:25;14.47;;;2.90;;
12871;SDS011;6504;53.766;9.626;2023-12-20T01:00:54;10.50;;;2.30;;
12871;SDS011;6504;53.766;9.626;2023-12-20T01:03:22;11.90;;;2.50;;
12871;SDS011;6504;53.766;9.626;2023-12-20T01:05:50;10.83;;;2.80;;
12871;SDS011;6504;53.766;9.626;2023-12-20T01:08:18;9.73;;;2.40;;
12871;SDS011;6504;53.766;9.626;2023-12-20T01:10:48;12.50;;;2.83;;
12871;SDS011;6504;53.766;9.626;2023-12-20T01:13:16;9.33;;;2.37;;
12871;SDS011;6504;53.766;9.626;2023-12-20T01:15:44;10.53;;;2.90;;
12871;SDS011;6504;53.766;9.626;2023-12-20T01:18:13;9.27;;;2.47;;
12871;SDS011;6504;53.766;9.626;2023-12-20T01:20:42;10.70;;;3.30;;
12871;SDS011;6504;53.766;9.626;2023-12-20T01:23:10;12.03;;;2.70;;
12871;SDS011;6504;53.766;9.626;2023-12-20T01:25:38;10.57;;;3.00;;
12871;SDS011;6504;53.766;9.626;2023-12-20T01:28:08;10.53;;;2.97;;
12871;SDS011;6504;53.766;9.626;2023-12-20T01:30:36;11.27;;;2.90;;
12871;SDS011;6504;53.766;9.626;2023-12-20T01:33:05;9.47;;;2.30;;
12871;SDS011;6504;53.766;9.626;2023-12-20T01:35:33;13.07;;;3.30;;
12871;SDS011;6504;53.766;9.626;2023-12-20T01:38:01;11.17;;;2.77;;
12871;SDS011;6504;53.766;9.626;2023-12-20T01:40:29;11.13;;;2.90;;
12871;SDS011;6504;53.766;9.626;2023-12-20T01:42:58;13.97;;;2.60;;
12871;SDS011;6504;53.766;9.626;2023-12-20T01:45:28;10.03;;;2.63;;
12871;SDS011;6504;53.766;9.626;2023-12-20T01:47:57;11.00;;;2.87;;
12871;SDS011;6504;53.766;9.626;2023-12-20T01:50:26;10.57;;;2.83;;
12871;SDS011;6504;53.766;9.626;2023-12-20T01:52:55;7.40;;;2.67;;
12871;SDS011;6504;53.766;9.626;2023-12-20T01:55:25;10.63;;;2.83;;
12871;SDS011;6504;53.766;9.626;2023-12-20T01:57:54;8.47;;;2.80;;
12871;SDS011;6504;53.766;9.626;2023-12-20T02:00:23;12.83;;;2.27;;
12871;SDS011;6504;53.766;9.626;2023-12-20T02:02:55;10.50;;;2.87;;
12871;SDS011;6504;53.766;9.626;2023-12-20T02:05:24;9.53;;;2.57;;
12871;SDS011;6504;53.766;9.626;2023-12-20T02:07:54;11.53;;;3.17;;
12871;SDS011;6504;53.766;9.626;2023-12-20T02:10:22;11.60;;;3.10;;
12871;SDS011;6504;53.766;9.626;2023-12-20T02:12:51;11.77;;;3.07;;
12871;SDS011;6504;53.766;9.626;2023-12-20T02:15:19;6.33;;;2.57;;
12871;SDS011;6504;53.766;9.626;2023-12-20T02:17:48;9.40;;;3.07;;
12871;SDS011;6504;53.766;9.626;2023-12-20T02:20:18;10.87;;;2.97;;
12871;SDS011;6504;53.766;9.626;2023-12-20T02:22:48;9.97;;;2.90;;
12871;SDS011;6504;53.766;9.626;2023-12-20T02:25:16;8.57;;;2.50;;
12871;SDS011;6504;53.766;9.626;2023-12-20T02:27:44;9.20;;;2.97;;
12871;SDS011;6504;53.766;9.626;2023-12-20T02:30:12;9.53;;;2.93;;
12871;SDS011;6504;53.766;9.626;2023-12-20T02:32:42;15.13;;;3.10;;
12871;SDS011;6504;53.766;9.626;2023-12-20T02:35:10;11.37;;;3.00;;
12871;SDS011;6504;53.766;9.626;2023-12-20T02:37:38;9.63;;;2.63;;
12871;SDS011;6504;53.766;9.626;2023-12-20T02:40:08;8.40;;;2.60;;
12871;SDS011;6504;53.766;9.626;2023-12-20T02:42:36;9.00;;;2.33;;
12871;SDS011;6504;53.766;9.626;2023-12-20T02:45:05;10.67;;;3.83;;
12871;SDS011;6504;53.766;9.626;2023-12-20T02:47:34;10.57;;;2.53;;
12871;SDS011;6504;53.766;9.626;2023-12-20T02:50:02;7.37;;;2.60;;
12871;SDS011;6504;53.766;9.626;2023-12-20T02:52:31;6.70;;;2.30;;
12871;SDS011;6504;53.766;9.626;2023-12-20T02:54:59;10.43;;;2.83;;
12871;SDS011;6504;53.766;9.626;2023-12-20T02:57:28;10.80;;;2.70;;
12871;SDS011;6504;53.766;9.626;2023-12-20T02:59:56;12.70;;;2.50;;
12871;SDS011;6504;53.766;9.626;2023-12-20T03:02:25;12.83;;;2.93;;
12871;SDS011;6504;53.766;9.626;2023-12-20T03:04:53;8.53;;;3.03;;
12871;SDS011;6504;53.766;9.626;2023-12-20T03:07:21;10.33;;;2.70;;
12871;SDS011;6504;53.766;9.626;2023-12-20T03:09:49;8.63;;;2.83;;
12871;SDS011;6504;53.766;9.626;2023-12-20T03:12:38;9.30;;;2.87;;
12871;SDS011;6504;53.766;9.626;2023-12-20T03:15:07;12.17;;;3.60;;
12871;SDS011;6504;53.766;9.626;2023-12-20T03:17:36;11.03;;;3.93;;
12871;SDS011;6504;53.766;9.626;2023-12-20T03:20:04;5.90;;;2.97;;
12871;SDS011;6504;53.766;9.626;2023-12-20T03:22:33;11.87;;;3.07;;
12871;SDS011;6504;53.766;9.626;2023-12-20T03:25:02;9.80;;;3.07;;
12871;SDS011;6504;53.766;9.626;2023-12-20T03:27:30;7.93;;;2.40;;
12871;SDS011;6504;53.766;9.626;2023-12-20T03:29:59;10.07;;;2.77;;
12871;SDS011;6504;53.766;9.626;2023-12-20T03:32:27;7.60;;;2.60;;
12871;SDS011;6504;53.766;9.626;2023-12-20T03:34:55;5.27;;;2.70;;
12871;SDS011;6504;53.766;9.626;2023-12-20T03:37:24;9.20;;;2.87;;
12871;SDS011;6504;53.766;9.626;2023-12-20T03:39:52;8.20;;;2.80;;
12871;SDS011;6504;53.766;9.626;2023-12-20T03:42:20;12.87;;;2.70;;
12871;SDS011;6504;53.766;9.626;2023-12-20T03:44:48;9.93;;;2.60;;
12871;SDS011;6504;53.766;9.626;2023-12-20T03:47:18;10.53;;;2.60;;
12871;SDS011;6504;53.766;9.626;2023-12-20T03:49:46;7.03;;;2.60;;
12871;SDS011;6504;53.766;9.626;2023-12-20T03:52:14;11.00;;;3.37;;
12871;SDS011;6504;53.766;9.626;2023-12-20T03:54:43;11.27;;;3.60;;
12871;SDS011;6504;53.766;9.626;2023-12-20T03:57:11;10.73;;;3.20;;
12871;SDS011;6504;53.766;9.626;2023-12-20T03:59:39;9.40;;;3.10;;
12871;SDS011;6504;53.766;9.626;2023-12-20T04:02:08;11.13;;;3.37;;
12871;SDS011;6504;53.766;9.626;2023-12-20T04:04:37;11.63;;;2.80;;
12871;SDS011;6504;53.766;9.626;2023-12-20T04:07:05;10.03;;;3.10;;
12871;SDS011;6504;53.766;9.626;2023-12-20T04:09:33;12.50;;;3.50;;
12871;SDS011;6504;53.766;9.626;2023-12-20T04:12:02;11.30;;;3.10;;
12871;SDS011;6504;53.766;9.626;2023-12-20T04:14:31;12.07;;;3.00;;
12871;SDS011;6504;53.766;9.626;2023-12-20T04:16:59;11.20;;;3.00;;
12871;SDS011;6504;53.766;9.626;2023-12-20T04:19:27;10.60;;;3.30;;
12871;SDS011;6504;53.766;9.626;2023-12-20T04:21:57;12.17;;;3.30;;
12871;SDS011;6504;53.766;9.626;2023-12-20T04:24:25;11.77;;;3.33;;
12871;SDS011;6504;53.766;9.626;2023-12-20T04:26:53;11.43;;;3.40;;
12871;SDS011;6504;53.766;9.626;2023-12-20T04:29:21;12.23;;;3.50;;
12871;SDS011;6504;53.766;9.626;2023-12-20T04:31:49;14.33;;;3.03;;
12871;SDS011;6504;53.766;9.626;2023-12-20T04:34:18;12.73;;;3.53;;
12871;SDS011;6504;53.766;9.626;2023-12-20T04:36:46;11.83;;;2.90;;
12871;SDS011;6504;53.766;9.626;2023-12-20T04:39:16;8.97;;;2.93;;
12871;SDS011;6504;53.766;9.626;2023-12-20T04:41:44;12.17;;;3.23;;
12871;SDS011;6504;53.766;9.626;2023-12-20T04:44:13;9.77;;;3.10;;
12871;SDS011;6504;53.766;9.626;2023-12-20T04:46:42;9.67;;;3.50;;
12871;SDS011;6504;53.766;9.626;2023-12-20T04:49:10;13.40;;;3.20;;
12871;SDS011;6504;53.766;9.626;2023-12-20T04:51:38;12.73;;;3.13;;
12871;SDS011;6504;53.766;9.626;2023-12-20T04:54:06;10.60;;;3.30;;
12871;SDS011;6504;53.766;9.626;2023-12-20T04:56:37;9.80;;;3.23;;
12871;SDS011;6504;53.766;9.626;2023-12-20T04:59:05;11.23;;;3.37;;
12871;SDS011;6504;53.766;9.626;2023-12-20T05:01:33;14.80;;;3.10;;
12871;SDS011;6504;53.766;9.626;2023-12-20T05:04:01;10.07;;;2.83;;
12871;SDS011;6504;53.766;9.626;2023-12-20T05:06:30;9.53;;;2.90;;
12871;SDS011;6504;53.766;9.626;2023-12-20T05:08:58;13.30;;;3.47;;
12871;SDS011;6504;53.766;9.626;2023-12-20T05:11:26;8.43;;;2.63;;
12871;SDS011;6504;53.766;9.626;2023-12-20T05:13:55;11.53;;;3.90;;
12871;SDS011;6504;53.766;9.626;2023-12-20T05:16:25;11.97;;;3.23;;
12871;SDS011;6504;53.766;9.626;2023-12-20T05:18:53;12.10;;;3.13;;
12871;SDS011;6504;53.766;9.626;2023-12-20T05:21:22;9.37;;;3.30;;
12871;SDS011;6504;53.766;9.626;2023-12-20T05:23:50;11.23;;;3.43;;
12871;SDS011;6504;53.766;9.626;2023-12-20T05:26:18;12.10;;;3.70;;
12871;SDS011;6504;53.766;9.626;2023-12-20T05:28:46;12.93;;;3.83;;
12871;SDS011;6504;53.766;9.626;2023-12-20T05:31:15;19.03;;;4.30;;
12871;SDS011;6504;53.766;9.626;2023-12-20T05:33:44;15.47;;;5.40;;
12871;SDS011;6504;53.766;9.626;2023-12-20T05:36:12;9.90;;;4.07;;
12871;SDS011;6504;53.766;9.626;2023-12-20T05:38:41;11.90;;;3.90;;
12871;SDS011;6504;53.766;9.626;2023-12-20T05:41:10;12.07;;;3.77;;
12871;SDS011;6504;53.766;9.626;2023-12-20T05:43:38;11.13;;;3.63;;
12871;SDS011;6504;53.766;9.626;2023-12-20T05:46:06;11.17;;;3.60;;
12871;SDS011;6504;53.766;9.626;2023-12-20T05:48:35;16.77;;;3.67;;
12871;SDS011;6504;53.766;9.626;2023-12-20T05:51:03;11.63;;;4.10;;
12871;SDS011;6504;53.766;9.626;2023-12-20T05:53:31;7.73;;;3.00;;
12871;SDS011;6504;53.766;9.626;2023-12-20T05:56:00;12.33;;;3.73;;
12871;SDS011;6504;53.766;9.626;2023-12-20T05:58:28;12.43;;;3.53;;
12871;SDS011;6504;53.766;9.626;2023-12-20T06:00:56;14.93;;;3.90;;
12871;SDS011;6504;53.766;9.626;2023-12-20T06:03:24;12.30;;;3.33;;
12871;SDS011;6504;53.766;9.626;2023-12-20T06:05:54;12.83;;;3.57;;
12871;SDS011;6504;53.766;9.626;2023-12-20T06:08:38;13.60;;;4.13;;
12871;SDS011;6504;53.766;9.626;2023-12-20T06:11:06;16.37;;;3.87;;
12871;SDS011;6504;53.766;9.626;2023-12-20T06:13:34;16.67;;;4.20;;
12871;SDS011;6504;53.766;9.626;2023-12-20T06:16:04;11.40;;;4.17;;
12871;SDS011;6504;53.766;9.626;2023-12-20T06:18:33;13.97;;;3.73;;
12871;SDS011;6504;53.766;9.626;2023-12-20T06:21:04;17.10;;;4.70;;
12871;SDS011;6504;53.766;9.626;2023-12-20T06:23:33;14.17;;;3.67;;
12871;SDS011;6504;53.766;9.626;2023-12-20T06:26:01;10.67;;;3.53;;
12871;SDS011;6504;53.766;9.626;2023-12-20T06:28:30;13.37;;;3.70;;
12871;SDS011;6504;53.766;9.626;2023-12-20T06:30:58;13.60;;;4.10;;
12871;SDS011;6504;53.766;9.626;2023-12-20T06:33:27;18.47;;;5.00;;
12871;SDS011;6504;53.766;9.626;2023-12-20T06:35:55;19.93;;;4.13;;
12871;SDS011;6504;53.766;9.626;2023-12-20T06:38:25;10.43;;;3.40;;
12871;SDS011;6504;53.766;9.626;2023-12-20T06:40:53;12.07;;;4.07;;
12871;SDS011;6504;53.766;9.626;2023-12-20T06:43:24;13.60;;;4.80;;
12871;SDS011;6504;53.766;9.626;2023-12-20T06:45:56;12.97;;;4.10;;
12871;SDS011;6504;53.766;9.626;2023-12-20T06:48:24;14.57;;;4.10;;
12871;SDS011;6504;53.766;9.626;2023-12-20T06:50:52;12.60;;;3.60;;
12871;SDS011;6504;53.766;9.626;2023-12-20T06:53:21;13.27;;;3.17;;
12871;SDS011;6504;53.766;9.626;2023-12-20T06:55:50;18.50;;;3.80;;
12871;SDS011;6504;53.766;9.626;2023-12-20T06:58:18;15.23;;;3.97;;
12871;SDS011;6504;53.766;9.626;2023-12-20T07:00:47;14.40;;;3.60;;
12871;SDS011;6504;53.766;9.626;2023-12-20T07:03:16;18.40;;;3.90;;
12871;SDS011;6504;53.766;9.626;2023-12-20T07:05:44;18.67;;;3.87;;
12871;SDS011;6504;53.766;9.626;2023-12-20T07:08:12;16.97;;;4.83;;
12871;SDS011;6504;53.766;9.626;2023-12-20T07:10:41;12.37;;;3.80;;
12871;SDS011;6504;53.766;9.626;2023-12-20T07:13:11;14.37;;;4.17;;
12871;SDS011;6504;53.766;9.626;2023-12-20T07:15:40;16.27;;;4.53;;
12871;SDS011;6504;53.766;9.626;2023-12-20T07:18:09;18.60;;;3.90;;
12871;SDS011;6504;53.766;9.626;2023-12-20T07:20:37;22.63;;;5.07;;
12871;SDS011;6504;53.766;9.626;2023-12-20T07:23:05;15.27;;;5.00;;
12871;SDS011;6504;53.766;9.626;2023-12-20T07:25:33;15.47;;;4.70;;
12871;SDS011;6504;53.766;9.626;2023-12-20T07:28:01;18.60;;;5.97;;
12871;SDS011;6504;53.766;9.626;2023-12-20T07:30:31;24.77;;;5.63;;
12871;SDS011;6504;53.766;9.626;2023-12-20T07:32:59;16.60;;;4.47;;
12871;SDS011;6504;53.766;9.626;2023-12-20T07:35:29;14.83;;;3.73;;
12871;SDS011;6504;53.766;9.626;2023-12-20T07:37:57;14.37;;;3.90;;
12871;SDS011;6504;53.766;9.626;2023-12-20T07:40:25;16.00;;;4.40;;
12871;SDS011;6504;53.766;9.626;2023-12-20T07:42:53;18.23;;;4.13;;
12871;SDS011;6504;53.766;9.626;2023-12-20T07:45:22;15.13;;;3.93;;
12871;SDS011;6504;53.766;9.626;2023-12-20T07:47:52;12.87;;;3.70;;
12871;SDS011;6504;53.766;9.626;2023-12-20T07:50:20;15.10;;;4.33;;
12871;SDS011;6504;53.766;9.626;2023-12-20T07:52:48;18.57;;;4.13;;
12871;SDS011;6504;53.766;9.626;2023-12-20T07:55:16;19.80;;;4.77;;
12871;SDS011;6504;53.766;9.626;2023-12-20T07:57:44;18.07;;;4.77;;
12871;SDS011;6504;53.766;9.626;2023-12-20T08:00:13;14.73;;;4.30;;
12871;SDS011;6504;53.766;9.626;2023-12-20T08:02:41;16.93;;;4.27;;
12871;SDS011;6504;53.766;9.626;2023-12-20T08:05:11;16.30;;;4.60;;
12871;SDS011;6504;53.766;9.626;2023-12-20T08:07:41;15.07;;;4.27;;
12871;SDS011;6504;53.766;9.626;2023-12-20T08:10:10;11.73;;;3.93;;
12871;SDS011;6504;53.766;9.626;2023-12-20T08:12:39;14.63;;;3.50;;
12871;SDS011;6504;53.766;9.626;2023-12-20T08:15:07;14.23;;;3.57;;
12871;SDS011;6504;53.766;9.626;2023-12-20T08:17:36;12.43;;;3.43;;
12871;SDS011;6504;53.766;9.626;2023-12-20T08:20:04;10.87;;;3.40;;
12871;SDS011;6504;53.766;9.626;2023-12-20T08:22:35;13.87;;;4.57;;
12871;SDS011;6504;53.766;9.626;2023-12-20T08:25:03;15.10;;;4.57;;
12871;SDS011;6504;53.766;9.626;2023-12-20T08:27:32;15.97;;;3.73;;
12871;SDS011;6504;53.766;9.626;2023-12-20T08:30:00;11.47;;;3.93;;
12871;SDS011;6504;53.766;9.626;2023-12-20T08:32:28;17.63;;;4.20;;
12871;SDS011;6504;53.766;9.626;2023-12-20T08:34:56;11.83;;;4.27;;
12871;SDS011;6504;53.766;9.626;2023-12-20T08:37:24;16.53;;;4.37;;
12871;SDS011;6504;53.766;9.626;2023-12-20T08:39:54;16.67;;;4.07;;
12871;SDS011;6504;53.766;9.626;2023-12-20T08:42:22;13.17;;;3.73;;
12871;SDS011;6504;53.766;9.626;2023-12-20T08:44:51;12.40;;;4.13;;
12871;SDS011;6504;53.766;9.626;2023-12-20T08:47:19;15.03;;;4.00;;
12871;SDS011;6504;53.766;9.626;2023-12-20T08:49:47;15.67;;;3.97;;
12871;SDS011;6504;53.766;9.626;2023-12-20T08:52:15;13.57;;;5.00;;
12871;SDS011;6504;53.766;9.626;2023-12-20T08:54:43;6.00;;;2.40;;
12871;SDS011;6504;53.766;9.626;2023-12-20T08:57:13;5.33;;;1.87;;
12871;SDS011;6504;53.766;9.626;2023-12-20T08:59:41;3.03;;;1.40;;
12871;SDS011;6504;53.766;9.626;2023-12-20T09:02:10;2.03;;;1.17;;
12871;SDS011;6504;53.766;9.626;2023-12-20T09:04:38;3.83;;;1.60;;
12871;SDS011;6504;53.766;9.626;2023-12-20T09:07:06;2.57;;;1.40;;
12871;SDS011;6504;53.766;9.626;2023-12-20T09:09:34;2.87;;;1.60;;
12871;SDS011;6504;53.766;9.626;2023-12-20T09:12:02;2.87;;;1.33;;
12871;SDS011;6504;53.766;9.626;2023-12-20T09:14:32;4.47;;;1.93;;
12871;SDS011;6504;53.766;9.626;2023-12-20T09:17:00;2.63;;;1.13;;
12871;SDS011;6504;53.766;9.626;2023-12-20T09:19:29;3.17;;;1.37;;
12871;SDS011;6504;53.766;9.626;2023-12-20T09:21:57;3.00;;;1.17;;
12871;SDS011;6504;53.766;9.626;2023-12-20T09:24:26;3.10;;;1.13;;
12871;SDS011;6504;53.766;9.626;2023-12-20T09:26:54;3.13;;;1.00;;
12871;SDS011;6504;53.766;9.626;2023-12-20T09:29:22;5.50;;;1.50;;
12871;SDS011;6504;53.766;9.626;2023-12-20T09:31:52;3.23;;;1.20;;
12871;SDS011;6504;53.766;9.626;2023-12-20T09:34:20;2.90;;;1.10;;
12871;SDS011;6504;53.766;9.626;2023-12-20T09:36:48;2.83;;;1.00;;
12871;SDS011;6504;53.766;9.626;2023-12-20T09:39:17;3.03;;;0.93;;
12871;SDS011;6504;53.766;9.626;2023-12-20T09:41:49;1.87;;;0.90;;
12871;SDS011;6504;53.766;9.626;2023-12-20T09:44:27;2.07;;;1.10;;
12871;SDS011;6504;53.766;9.626;2023-12-20T09:46:57;3.17;;;1.00;;
12871;SDS011;6504;53.766;9.626;2023-12-20T09:49:27;3.77;;;1.20;;
12871;SDS011;6504;53.766;9.626;2023-12-20T09:51:56;1.90;;;0.93;;
12871;SDS011;6504;53.766;9.626;2023-12-20T09:54:25;5.67;;;1.30;;
12871;SDS011;6504;53.766;9.626;2023-12-20T09:56:59;4.33;;;1.20;;
12871;SDS011;6504;53.766;9.626;2023-12-20T09:59:27;3.07;;;1.17;;
12871;SDS011;6504;53.766;9.626;2023-12-20T10:01:57;5.57;;;1.50;;
12871;SDS011;6504;53.766;9.626;2023-12-20T10:04:30;4.53;;;1.20;;
12871;SDS011;6504;53.766;9.626;2023-12-20T10:07:01;7.20;;;1.47;;
12871;SDS011;6504;53.766;9.626;2023-12-20T10:09:32;5.03;;;1.30;;
12871;SDS011;6504;53.766;9.626;2023-12-20T10:12:02;8.33;;;1.50;;
12871;SDS011;6504;53.766;9.626;2023-12-20T10:14:32;7.47;;;1.80;;
12871;SDS011;6504;53.766;9.626;2023-12-20T10:17:03;6.43;;;1.30;;
12871;SDS011;6504;53.766;9.626;2023-12-20T10:19:32;8.27;;;1.60;;
12871;SDS011;6504;53.766;9.626;2023-12-20T10:22:00;5.47;;;1.67;;
12871;SDS011;6504;53.766;9.626;2023-12-20T10:24:33;4.87;;;1.33;;
12871;SDS011;6504;53.766;9.626;2023-12-20T10:27:01;12.30;;;1.90;;
12871;SDS011;6504;53.766;9.626;2023-12-20T10:29:32;6.57;;;1.53;;
12871;SDS011;6504;53.766;9.626;2023-12-20T10:32:24;6.57;;;1.67;;
12871;SDS011;6504;53.766;9.626;2023-12-20T10:34:53;6.77;;;1.50;;
12871;SDS011;6504;53.766;9.626;2023-12-20T10:37:23;8.00;;;1.83;;
12871;SDS011;6504;53.766;9.626;2023-12-20T10:39:53;5.70;;;1.67;;
12871;SDS011;6504;53.766;9.626;2023-12-20T10:42:24;8.87;;;2.00;;
12871;SDS011;6504;53.766;9.626;2023-12-20T10:44:54;5.40;;;2.10;;
12871;SDS011;6504;53.766;9.626;2023-12-20T10:47:24;7.73;;;2.30;;
12871;SDS011;6504;53.766;9.626;2023-12-20T10:49:52;11.40;;;2.20;;
12871;SDS011;6504;53.766;9.626;2023-12-20T10:52:22;10.03;;;2.13;;
12871;SDS011;6504;53.766;9.626;2023-12-20T10:54:51;8.97;;;2.50;;
12871;SDS011;6504;53.766;9.626;2023-12-20T10:57:20;9.47;;;2.97;;
12871;SDS011;6504;53.766;9.626;2023-12-20T10:59:49;11.00;;;3.10;;
12871;SDS011;6504;53.766;9.626;2023-12-20T11:02:21;9.53;;;2.70;;
12871;SDS011;6504;53.766;9.626;2023-12-20T11:04:53;8.27;;;2.50;;
12871;SDS011;6504;53.766;9.626;2023-12-20T11:07:29;10.83;;;2.57;;
12871;SDS011;6504;53.766;9.626;2023-12-20T11:10:03;8.47;;;2.63;;
12871;SDS011;6504;53.766;9.626;2023-12-20T11:12:41;8.23;;;2.50;;
12871;SDS011;6504;53.766;9.626;2023-12-20T11:15:14;11.67;;;2.13;;
12871;SDS011;6504;53.766;9.626;2023-12-20T11:17:45;7.77;;;2.37;;
12871;SDS011;6504;53.766;9.626;2023-12-20T11:20:17;12.97;;;2.50;;
12871;SDS011;6504;53.766;9.626;2023-12-20T11:22:52;11.83;;;2.60;;
12871;SDS011;6504;53.766;9.626;2023-12-20T11:25:21;12.23;;;2.23;;
12871;SDS011;6504;53.766;9.626;2023-12-20T11:28:06;10.80;;;3.00;;
12871;SDS011;6504;53.766;9.626;2023-12-20T11:30:42;10.13;;;2.63;;
12871;SDS011;6504;53.766;9.626;2023-12-20T11:33:16;9.37;;;2.87;;
12871;SDS011;6504;53.766;9.626;2023-12-20T11:35:45;16.00;;;3.37;;
12871;SDS011;6504;53.766;9.626;2023-12-20T11:38:13;16.03;;;3.43;;
12871;SDS011;6504;53.766;9.626;2023-12-20T11:40:42;15.33;;;3.80;;
12871;SDS011;6504;53.766;9.626;2023-12-20T11:43:10;14.43;;;3.73;;
12871;SDS011;6504;53.766;9.626;2023-12-20T11:45:38;14.50;;;3.80;;
12871;SDS011;6504;53.766;9.626;2023-12-20T11:48:19;14.43;;;3.80;;
12871;SDS011;6504;53.766;9.626;2023-12-20T11:50:47;18.23;;;5.03;;
12871;SDS011;6504;53.766;9.626;2023-12-20T11:53:17;20.53;;;4.87;;
12871;SDS011;6504;53.766;9.626;2023-12-20T11:55:47;16.77;;;3.80;;
12871;SDS011;6504;53.766;9.626;2023-12-20T11:58:15;18.80;;;4.53;;
12871;SDS011;6504;53.766;9.626;2023-12-20T12:00:44;11.90;;;3.40;;
12871;SDS011;6504;53.766;9.626;2023-12-20T12:03:14;14.57;;;3.73;;
12871;SDS011;6504;53.766;9.626;2023-12-20T12:05:44;14.90;;;4.03;;
12871;SDS011;6504;53.766;9.626;2023-12-20T12:08:14;10.07;;;3.03;;
12871;SDS011;6504;53.766;9.626;2023-12-20T12:10:43;10.63;;;3.20;;
12871;SDS011;6504;53.766;9.626;2023-12-20T12:13:12;11.73;;;3.33;;
12871;SDS011;6504;53.766;9.626;2023-12-20T12:15:41;14.13;;;3.77;;
12871;SDS011;6504;53.766;9.626;2023-12-20T12:18:11;10.87;;;3.50;;
12871;SDS011;6504;53.766;9.626;2023-12-20T12:20:44;14.23;;;4.20;;
12871;SDS011;6504;53.766;9.626;2023-12-20T12:23:12;12.17;;;3.77;;
12871;SDS011;6504;53.766;9.626;2023-12-20T12:25:40;19.23;;;4.97;;
12871;SDS011;6504;53.766;9.626;2023-12-20T12:28:09;14.63;;;3.80;;
12871;SDS011;6504;53.766;9.626;2023-12-20T12:30:39;19.33;;;5.53;;
12871;SDS011;6504;53.766;9.626;2023-12-20T12:33:19;14.73;;;4.37;;
12871;SDS011;6504;53.766;9.626;2023-12-20T12:35:49;14.93;;;3.67;;
12871;SDS011;6504;53.766;9.626;2023-12-20T12:38:19;13.40;;;3.77;;
12871;SDS011;6504;53.766;9.626;2023-12-20T12:40:47;13.40;;;3.70;;
12871;SDS011;6504;53.766;9.626;2023-12-20T12:43:16;13.33;;;3.23;;
12871;SDS011;6504;53.766;9.626;2023-12-20T12:45:44;16.67;;;4.27;;
12871;SDS011;6504;53.766;9.626;2023-12-20T12:48:13;19.63;;;4.00;;
12871;SDS011;6504;53.766;9.626;2023-12-20T12:50:42;15.50;;;4.23;;
12871;SDS011;6504;53.766;9.626;2023-12-20T12:53:11;17.77;;;4.40;;
12871;SDS011;6504;53.766;9.626;2023-12-20T12:55:39;18.07;;;4.77;;
12871;SDS011;6504;53.766;9.626;2023-12-20T12:58:07;11.63;;;3.83;;
12871;SDS011;6504;53.766;9.626;2023-12-20T13:00:36;12.67;;;4.03;;
12871;SDS011;6504;53.766;9.626;2023-12-20T13:03:04;15.03;;;4.50;;
12871;SDS011;6504;53.766;9.626;2023-12-20T13:05:33;13.77;;;4.00;;
12871;SDS011;6504;53.766;9.626;2023-12-20T13:08:07;16.20;;;4.70;;
12871;SDS011;6504;53.766;9.626;2023-12-20T13:10:37;16.20;;;4.33;;
12871;SDS011;6504;53.766;9.626;2023-12-20T13:13:05;20.17;;;4.87;;
12871;SDS011;6504;53.766;9.626;2023-12-20T13:15:34;17.73;;;5.17;;
12871;SDS011;6504;53.766;9.626;2023-12-20T13:18:05;17.43;;;5.57;;
12871;SDS011;6504;53.766;9.626;2023-12-20T13:20:34;13.47;;;4.67;;
12871;SDS011;6504;53.766;9.626;2023-12-20T13:23:02;18.10;;;5.27;;
12871;SDS011;6504;53.766;9.626;2023-12-20T13:25:31;18.47;;;5.20;;
12871;SDS011;6504;53.766;9.626;2023-12-20T13:28:01;17.80;;;5.07;;
12871;SDS011;6504;53.766;9.626;2023-12-20T13:30:30;17.23;;;5.40;;
12871;SDS011;6504;53.766;9.626;2023-12-20T13:32:58;20.20;;;5.77;;
12871;SDS011;6504;53.766;9.626;2023-12-20T13:35:27;17.00;;;5.87;;
12871;SDS011;6504;53.766;9.626;2023-12-20T13:37:55;19.53;;;5.80;;
12871;SDS011;6504;53.766;9.626;2023-12-20T13:40:23;14.87;;;5.27;;
12871;SDS011;6504;53.766;9.626;2023-12-20T13:42:52;16.13;;;5.63;;
12871;SDS011;6504;53.766;9.626;2023-12-20T13:45:22;12.90;;;4.67;;
12871;SDS011;6504;53.766;9.626;2023-12-20T13:47:51;13.00;;;4.73;;
12871;SDS011;6504;53.766;9.626;2023-12-20T13:50:19;10.97;;;3.80;;
12871;SDS011;6504;53.766;9.626;2023-12-20T13:52:48;12.53;;;4.10;;
12871;SDS011;6504;53.766;9.626;2023-12-20T13:55:16;9.77;;;3.90;;
12871;SDS011;6504;53.766;9.626;2023-12-20T13:57:47;9.80;;;4.20;;
12871;SDS011;6504;53.766;9.626;2023-12-20T14:00:23;9.80;;;4.43;;
12871;SDS011;6504;53.766;9.626;2023-12-20T14:02:51;16.90;;;5.10;;
12871;SDS011;6504;53.766;9.626;2023-12-20T14:05:20;13.33;;;4.57;;
12871;SDS011;6504;53.766;9.626;2023-12-20T14:07:54;15.00;;;5.27;;
12871;SDS011;6504;53.766;9.626;2023-12-20T14:10:24;14.10;;;5.03;;
12871;SDS011;6504;53.766;9.626;2023-12-20T14:12:54;17.30;;;5.00;;
12871;SDS011;6504;53.766;9.626;2023-12-20T14:15:23;13.90;;;4.97;;
12871;SDS011;6504;53.766;9.626;2023-12-20T14:17:52;12.90;;;5.07;;
12871;SDS011;6504;53.766;9.626;2023-12-20T14:20:21;14.33;;;4.53;;
12871;SDS011;6504;53.766;9.626;2023-12-20T14:22:49;17.23;;;4.33;;
12871;SDS011;6504;53.766;9.626;2023-12-20T14:25:17;15.77;;;4.63;;
12871;SDS011;6504;53.766;9.626;2023-12-20T14:27:46;12.57;;;4.40;;
12871;SDS011;6504;53.766;9.626;2023-12-20T14:30:14;12.43;;;4.30;;
12871;SDS011;6504;53.766;9.626;2023-12-20T14:32:45;13.07;;;4.63;;
12871;SDS011;6504;53.766;9.626;2023-12-20T14:35:14;9.30;;;4.03;;
12871;SDS011;6504;53.766;9.626;2023-12-20T14:37:42;13.23;;;4.10;;
12871;SDS011;6504;53.766;9.626;2023-12-20T14:40:11;14.33;;;4.20;;
12871;SDS011;6504;53.766;9.626;2023-12-20T14:42:42;12.70;;;4.43;;
12871;SDS011;6504;53.766;9.626;2023-12-20T14:45:11;15.67;;;4.93;;
12871;SDS011;6504;53.766;9.626;2023-12-20T14:47:40;13.60;;;4.80;;
12871;SDS011;6504;53.766;9.626;2023-12-20T14:50:10;17.33;;;4.60;;
12871;SDS011;6504;53.766;9.626;2023-12-20T14:52:44;14.80;;;5.10;;
12871;SDS011;6504;53.766;9.626;2023-12-20T14:55:13;14.33;;;4.50;;
12871;SDS011;6504;53.766;9.626;2023-12-20T14:57:42;10.83;;;3.93;;
12871;SDS011;6504;53.766;9.626;2023-12-20T15:00:10;13.50;;;3.93;;
12871;SDS011;6504;53.766;9.626;2023-12-20T15:02:42;12.60;;;4.17;;